createdAt,value
2022-08-05T00:01:35.562Z,87.06
2022-08-05T00:04:02.368Z,87.17
2022-08-05T00:06:33.226Z,87.84
2022-08-05T00:09:03.818Z,88.32
2022-08-05T00:11:34.986Z,88.51
2022-08-05T00:14:17.111Z,88.89
2022-08-05T00:16:52.836Z,88.59
2022-08-05T00:19:22.460Z,88.73
2022-08-05T00:21:49.571Z,89.04
2022-08-05T00:24:19.294Z,89.14
2022-08-05T00:26:53.154Z,88.42
2022-08-05T00:29:22.572Z,88.26
2022-08-05T00:32:10.910Z,89.07
2022-08-05T00:34:54.548Z,89.65
2022-08-05T00:37:27.581Z,91.26
2022-08-05T00:40:13.836Z,92.31
2022-08-05T00:42:48.247Z,92.50
2022-08-05T00:45:16.050Z,92.21
2022-08-05T00:47:57.062Z,92.79
2022-08-05T00:50:31.568Z,93.95
2022-08-05T00:52:58.177Z,94.47
2022-08-05T00:55:42.475Z,95.75
2022-08-05T00:58:13.351Z,95.84
2022-08-05T01:00:40.956Z,96.11
2022-08-05T01:03:22.185Z,96.11
2022-08-05T01:05:51.439Z,97.06
2022-08-05T01:08:40.762Z,96.22
2022-08-05T01:11:22.056Z,96.62
2022-08-05T01:14:01.189Z,96.70
2022-08-05T01:16:49.303Z,96.56
2022-08-05T01:19:18.805Z,95.55
2022-08-05T01:22:15.606Z,96.20
2022-08-05T01:24:50.622Z,96.40
2022-08-05T01:27:58.344Z,96.02
2022-08-05T01:30:35.156Z,95.49
2022-08-05T01:33:08.291Z,95.67
2022-08-05T01:35:50.809Z,93.31
2022-08-05T01:38:26.871Z,92.47
2022-08-05T01:40:58.876Z,92.10
2022-08-05T01:43:28.013Z,92.15
2022-08-05T01:45:57.695Z,91.91
2022-08-05T01:48:27.610Z,92.20
2022-08-05T01:50:56.749Z,93.04
2022-08-05T01:53:54.640Z,93.78
2022-08-05T01:58:12.973Z,95.69
2022-08-05T01:59:06.678Z,97.09
2022-08-05T02:01:40.230Z,97.91
2022-08-05T02:04:10.345Z,98.62
2022-08-05T02:06:39.017Z,98.60
2022-08-05T02:09:07.103Z,99.21
2022-08-05T02:11:48.064Z,100.00
2022-08-05T02:14:29.385Z,100.00
2022-08-05T02:17:07.328Z,100.00
2022-08-05T02:19:47.446Z,100.00
2022-08-05T02:22:29.354Z,100.00
2022-08-05T02:25:22.507Z,100.00
2022-08-05T02:27:59.461Z,100.00
2022-08-05T02:30:38.510Z,100.00
2022-08-05T02:33:24.356Z,100.00
2022-08-05T02:36:05.128Z,100.00
2022-08-05T02:38:35.488Z,100.00
2022-08-05T02:41:14.717Z,100.00
2022-08-05T02:44:02.533Z,100.00
2022-08-05T02:46:34.405Z,100.00
2022-08-05T02:49:01.467Z,100.00
2022-08-05T02:52:02.985Z,99.91
2022-08-05T02:54:36.532Z,99.92
2022-08-05T02:57:10.096Z,99.78
2022-08-05T02:59:56.015Z,99.88
2022-08-05T03:02:28.474Z,99.26
2022-08-05T03:04:57.440Z,99.32
2022-08-05T03:08:00.409Z,99.26
2022-08-05T03:10:21.760Z,98.87
2022-08-05T03:12:53.382Z,98.38
2022-08-05T03:15:23.414Z,97.48
2022-08-05T03:17:54.159Z,97.29
2022-08-05T03:20:23.647Z,98.38
2022-08-05T03:22:51.419Z,97.60
2022-08-05T03:25:32.402Z,97.17
2022-08-05T03:28:02.962Z,96.50
2022-08-05T03:30:33.831Z,95.85
2022-08-05T03:33:01.979Z,94.12
2022-08-05T03:35:33.738Z,93.76
2022-08-05T03:38:01.508Z,93.93
2022-08-05T03:40:31.878Z,97.78
2022-08-05T03:43:01.508Z,100.00
2022-08-05T03:45:58.339Z,100.00
2022-08-05T03:48:27.141Z,100.00
2022-08-05T03:52:37.822Z,100.00
2022-08-05T03:55:51.935Z,100.00
2022-08-05T03:57:16.541Z,100.00
2022-08-05T03:59:54.958Z,100.00
2022-08-05T04:02:38.468Z,100.00
2022-08-05T04:05:09.734Z,100.00
2022-08-05T04:07:53.532Z,100.00
2022-08-05T04:10:27.695Z,97.02
2022-08-05T04:12:56.337Z,95.67
2022-08-05T04:15:27.758Z,97.05
2022-08-05T04:18:02.834Z,98.16
2022-08-05T04:20:32.362Z,96.37
2022-08-05T04:23:00.316Z,95.10
2022-08-05T04:25:56.856Z,93.80
2022-08-05T04:28:17.202Z,92.50
2022-08-05T04:30:44.696Z,94.17
2022-08-05T04:33:11.724Z,95.34
2022-08-05T04:36:15.724Z,96.66
2022-08-05T04:38:39.938Z,96.22
2022-08-05T04:41:09.558Z,93.25
2022-08-05T04:43:46.495Z,90.91
2022-08-05T04:46:27.930Z,90.69
2022-08-05T04:48:57.985Z,88.87
2022-08-05T04:51:25.582Z,86.96
2022-08-05T04:54:01.339Z,86.41
2022-08-05T04:56:35.162Z,86.63
2022-08-05T04:59:22.273Z,87.77
2022-08-05T05:02:35.388Z,86.98
2022-08-05T05:04:47.857Z,85.43
2022-08-05T05:07:17.681Z,84.13
2022-08-05T05:09:46.382Z,85.40
2022-08-05T05:12:13.034Z,85.77
2022-08-05T05:14:49.503Z,84.22
2022-08-05T05:17:23.513Z,85.11
2022-08-05T05:19:53.832Z,85.31
2022-08-05T05:22:23.613Z,84.79
2022-08-05T05:25:00.095Z,86.16
2022-08-05T05:27:44.793Z,84.96
2022-08-05T05:30:29.522Z,84.48
2022-08-05T05:33:00.972Z,83.26
2022-08-05T05:35:34.437Z,82.45
2022-08-05T05:38:05.648Z,83.03
2022-08-05T05:40:35.564Z,83.57
2022-08-05T05:43:03.220Z,82.79
2022-08-05T05:45:29.935Z,81.91
2022-08-05T05:48:07.027Z,80.61
2022-08-05T05:50:43.846Z,80.51
2022-08-05T05:53:21.196Z,79.28
2022-08-05T05:55:52.061Z,79.76
2022-08-05T05:58:30.134Z,79.79
2022-08-05T06:01:13.078Z,78.78
2022-08-05T06:04:00.613Z,76.79
2022-08-05T06:06:30.861Z,76.00
2022-08-05T06:08:58.230Z,75.97
2022-08-05T06:11:29.059Z,75.78
2022-08-05T06:13:56.754Z,74.28
2022-08-05T06:16:29.831Z,73.51
2022-08-05T06:19:05.626Z,72.88
2022-08-05T06:21:37.106Z,72.37
2022-08-05T06:24:11.194Z,69.20
2022-08-05T06:26:51.334Z,67.54
2022-08-05T06:29:25.286Z,64.66
2022-08-05T06:32:26.186Z,63.83
2022-08-05T06:34:57.803Z,61.08
2022-08-05T06:37:56.252Z,59.89
2022-08-05T06:40:13.043Z,60.22
2022-08-05T06:42:40.583Z,59.30
2022-08-05T06:45:09.273Z,58.45
2022-08-05T06:48:37.220Z,58.27
2022-08-05T06:50:23.711Z,57.74
2022-08-05T06:52:58.572Z,56.75
2022-08-05T06:55:30.320Z,55.73
2022-08-05T06:58:29.705Z,55.04
2022-08-05T07:00:51.984Z,53.53
2022-08-05T07:03:20.037Z,53.18
2022-08-05T07:05:55.254Z,53.91
2022-08-05T07:08:23.794Z,52.59
2022-08-05T07:10:53.403Z,52.60
2022-08-05T07:13:56.623Z,52.16
2022-08-05T07:16:12.090Z,51.78
2022-08-05T07:18:57.357Z,51.89
2022-08-05T07:21:26.137Z,52.04
2022-08-05T07:23:52.637Z,51.17
2022-08-05T07:26:22.763Z,51.42
2022-08-05T07:28:51.871Z,51.17
2022-08-05T07:31:20.051Z,49.96
2022-08-05T07:34:08.314Z,49.30
2022-08-05T07:36:36.499Z,49.94
2022-08-05T07:39:08.038Z,49.45
2022-08-05T07:42:08.001Z,50.11
2022-08-05T07:44:37.741Z,50.65
2022-08-05T07:47:06.197Z,49.71
2022-08-05T07:49:34.463Z,48.29
2022-08-05T07:52:10.263Z,47.66
2022-08-05T07:54:38.650Z,46.84
2022-08-05T07:57:22.540Z,47.27
2022-08-05T07:59:55.736Z,46.35
2022-08-05T08:02:31.140Z,46.53
2022-08-05T08:05:16.554Z,46.37
2022-08-05T08:07:59.276Z,45.46
2022-08-05T08:10:28.055Z,44.05
2022-08-05T08:12:58.591Z,44.44
2022-08-05T08:15:37.063Z,43.97
2022-08-05T08:18:14.360Z,43.38
2022-08-05T08:20:43.195Z,44.69
2022-08-05T08:24:03.400Z,43.86
2022-08-05T08:25:58.991Z,44.34
2022-08-05T08:28:36.730Z,44.29
2022-08-05T08:31:09.462Z,43.20
2022-08-05T08:33:42.053Z,42.55
2022-08-05T08:36:37.490Z,42.98
2022-08-05T08:38:57.788Z,42.78
2022-08-05T08:41:50.646Z,43.18
2022-08-05T08:45:21.422Z,42.51
2022-08-05T08:47:46.913Z,42.53
2022-08-05T08:50:05.964Z,41.91
2022-08-05T08:52:57.062Z,41.44
2022-08-05T08:56:02.007Z,40.12
2022-08-05T08:58:13.173Z,41.06
2022-08-05T09:00:41.010Z,40.96
2022-08-05T09:03:10.283Z,40.34
2022-08-05T09:05:39.038Z,39.18
2022-08-05T09:08:26.567Z,38.12
2022-08-05T09:10:54.036Z,37.56
2022-08-05T09:13:20.664Z,38.16
2022-08-05T09:15:50.964Z,38.57
2022-08-05T09:18:17.636Z,38.31
2022-08-05T09:20:47.281Z,35.71
2022-08-05T09:23:18.832Z,36.11
2022-08-05T09:26:00.818Z,36.69
2022-08-05T09:28:33.567Z,37.22
2022-08-05T09:31:03.700Z,37.86
2022-08-05T09:33:58.020Z,37.69
2022-08-05T09:36:37.736Z,38.01
2022-08-05T09:39:18.562Z,38.39
2022-08-05T09:42:03.424Z,38.26
2022-08-05T09:44:36.669Z,38.62
2022-08-05T09:47:15.947Z,37.70
2022-08-05T09:50:00.823Z,36.63
2022-08-05T09:52:46.884Z,36.07
2022-08-05T09:55:57.335Z,35.94
2022-08-05T09:58:15.545Z,35.57
2022-08-05T10:00:58.179Z,35.73
2022-08-05T10:03:56.860Z,35.52
2022-08-05T10:06:19.970Z,34.70
2022-08-05T10:08:50.280Z,34.00
2022-08-05T10:11:20.875Z,35.07
2022-08-05T10:13:54.751Z,34.30
2022-08-05T10:16:30.499Z,34.49
2022-08-05T10:19:00.312Z,35.03
2022-08-05T10:21:27.531Z,34.60
2022-08-05T10:24:05.176Z,34.92
2022-08-05T10:26:36.641Z,34.19
2022-08-05T10:29:20.353Z,33.07
2022-08-05T10:32:52.444Z,33.01
2022-08-05T10:34:40.881Z,32.67
2022-08-05T10:37:08.197Z,31.14
2022-08-05T10:40:03.175Z,31.88
2022-08-05T10:42:32.577Z,32.24
2022-08-05T10:45:21.510Z,32.28
2022-08-05T10:48:31.809Z,33.79
2022-08-05T10:51:21.862Z,34.84
2022-08-05T10:53:58.413Z,34.19
2022-08-05T10:56:44.996Z,34.73
2022-08-05T11:00:02.989Z,33.99
2022-08-05T11:02:14.700Z,34.91
2022-08-05T11:04:59.521Z,34.39
2022-08-05T11:07:32.862Z,33.71
2022-08-05T11:10:23.137Z,32.85
2022-08-05T11:12:55.292Z,32.65
2022-08-05T11:16:01.278Z,30.75
2022-08-05T11:18:32.513Z,32.54
2022-08-05T11:21:00.990Z,31.62
2022-08-05T11:24:04.560Z,31.42
2022-08-05T11:26:37.916Z,31.26
2022-08-05T11:29:12.936Z,32.53
2022-08-05T11:31:58.329Z,33.18
2022-08-05T11:34:51.709Z,32.27
2022-08-05T11:38:29.219Z,31.96
2022-08-05T11:41:34.661Z,32.63
2022-08-05T11:44:07.355Z,32.25
2022-08-05T11:47:09.361Z,30.84
2022-08-05T11:49:28.824Z,31.54
2022-08-05T11:52:00.523Z,31.12
2022-08-05T11:54:33.471Z,31.32
2022-08-05T11:57:07.639Z,30.66
2022-08-05T11:59:49.569Z,31.13
2022-08-05T12:02:29.855Z,32.21
2022-08-05T12:05:07.558Z,31.81
2022-08-05T12:08:07.429Z,31.83
2022-08-05T12:10:39.076Z,32.15
2022-08-05T12:13:15.501Z,31.72
2022-08-05T12:15:45.125Z,32.50
2022-08-05T12:18:20.816Z,30.92
2022-08-05T12:20:51.221Z,30.67
2022-08-05T12:23:20.449Z,30.69
2022-08-05T12:25:51.294Z,29.90
2022-08-05T12:28:39.266Z,31.12
2022-08-05T12:31:06.188Z,30.22
2022-08-05T12:33:36.304Z,31.05
2022-08-05T12:36:08.385Z,31.20
2022-08-05T12:38:41.392Z,30.47
2022-08-05T12:41:16.175Z,30.84
2022-08-05T12:44:00.846Z,29.50
2022-08-05T12:46:32.150Z,29.69
2022-08-05T12:49:13.008Z,30.48
2022-08-05T12:52:11.051Z,30.29
2022-08-05T12:54:47.577Z,30.83
2022-08-05T12:57:17.697Z,30.06
2022-08-05T13:01:57.739Z,28.94
2022-08-05T13:02:40.195Z,29.72
2022-08-05T13:05:08.710Z,30.50
2022-08-05T13:07:59.372Z,29.39
2022-08-05T13:10:28.640Z,28.58
2022-08-05T13:12:58.499Z,28.11
2022-08-05T13:15:41.510Z,27.90
2022-08-05T13:18:19.802Z,28.36
2022-08-05T13:20:50.111Z,28.66
2022-08-05T13:23:22.142Z,29.29
2022-08-05T13:25:52.573Z,29.03
2022-08-05T13:28:27.304Z,28.50
2022-08-05T13:30:53.973Z,28.16
2022-08-05T13:34:21.751Z,27.88
2022-08-05T13:36:09.270Z,28.33
2022-08-05T13:38:41.998Z,28.69
2022-08-05T13:41:09.727Z,28.03
2022-08-05T13:43:44.218Z,28.86
2022-08-05T13:46:43.873Z,29.12
2022-08-05T13:49:11.795Z,29.74
2022-08-05T13:51:41.564Z,29.18
2022-08-05T13:54:15.050Z,29.06
2022-08-05T13:56:44.992Z,29.34
2022-08-05T13:59:23.965Z,29.81
2022-08-05T14:01:57.633Z,28.76
2022-08-05T14:04:38.079Z,29.17
2022-08-05T14:07:25.161Z,29.89
2022-08-05T14:09:51.877Z,29.09
2022-08-05T14:12:32.283Z,28.94
2022-08-05T14:15:00.146Z,29.37
2022-08-05T14:17:28.221Z,29.46
2022-08-05T14:20:00.955Z,30.05
2022-08-05T14:22:34.549Z,29.94
2022-08-05T14:25:06.413Z,29.95
2022-08-05T14:27:47.544Z,30.67
2022-08-05T14:30:20.236Z,31.13
2022-08-05T14:32:48.105Z,31.01
2022-08-05T14:35:14.898Z,30.87
2022-08-05T14:37:48.315Z,32.00
2022-08-05T14:40:17.558Z,31.96
2022-08-05T14:42:44.423Z,32.14
2022-08-05T14:45:11.249Z,31.69
2022-08-05T14:48:02.972Z,32.51
2022-08-05T14:50:25.426Z,32.15
2022-08-05T14:52:56.786Z,32.38
2022-08-05T14:55:28.738Z,33.15
2022-08-05T14:58:14.040Z,33.21
2022-08-05T15:00:59.570Z,33.04
2022-08-05T15:03:38.873Z,33.80
2022-08-05T15:06:15.083Z,33.97
2022-08-05T15:08:59.553Z,33.77
2022-08-05T15:11:50.842Z,34.02
2022-08-05T15:14:33.631Z,33.98
2022-08-05T15:17:45.058Z,34.53
2022-08-05T15:19:55.114Z,34.17
2022-08-05T15:22:21.913Z,34.25
2022-08-05T15:24:54.229Z,36.26
2022-08-05T15:27:20.810Z,37.84
2022-08-05T15:29:49.616Z,37.86
2022-08-05T15:32:16.634Z,38.54
2022-08-05T15:34:43.348Z,39.06
2022-08-05T15:37:15.639Z,38.57
2022-08-05T15:40:58.794Z,39.77
2022-08-05T15:42:55.249Z,39.48
2022-08-05T15:45:23.165Z,39.57
2022-08-05T15:48:05.411Z,39.94
2022-08-05T15:50:33.512Z,40.67
2022-08-05T15:53:05.682Z,41.38
2022-08-05T15:56:02.026Z,42.38
2022-08-05T15:58:19.770Z,43.75
2022-08-05T16:01:04.362Z,44.63
2022-08-05T16:03:36.776Z,45.09
2022-08-05T16:06:08.780Z,45.46
2022-08-05T16:08:39.910Z,45.53
2022-08-05T16:11:09.289Z,45.97
2022-08-05T16:13:36.831Z,45.18
2022-08-05T16:16:06.332Z,45.99
2022-08-05T16:18:33.630Z,45.89
2022-08-05T16:21:01.218Z,45.72
2022-08-05T16:23:53.352Z,46.00
2022-08-05T16:26:17.889Z,46.57
2022-08-05T16:28:44.673Z,46.18
2022-08-05T16:31:11.183Z,45.88
2022-08-05T16:33:41.593Z,46.60
2022-08-05T16:36:08.902Z,46.94
2022-08-05T16:38:35.723Z,47.04
2022-08-05T16:42:12.259Z,46.60
2022-08-05T16:43:56.327Z,46.08
2022-08-05T16:46:24.903Z,46.21
2022-08-05T16:48:52.266Z,46.55
2022-08-05T16:51:19.708Z,46.19
2022-08-05T16:54:05.862Z,45.74
2022-08-05T16:56:36.700Z,45.94
2022-08-05T16:59:08.773Z,47.08
2022-08-05T17:01:53.576Z,46.76
2022-08-05T17:04:23.663Z,47.38
2022-08-05T17:06:53.103Z,47.46
2022-08-05T17:09:20.563Z,47.62
2022-08-05T17:11:48.646Z,48.45
2022-08-05T17:14:34.209Z,47.28
2022-08-05T17:17:04.280Z,46.45
2022-08-05T17:19:32.290Z,47.15
2022-08-05T17:22:02.206Z,46.49
2022-08-05T17:24:38.716Z,48.04
2022-08-05T17:27:09.133Z,48.07
2022-08-05T17:29:41.075Z,48.13
2022-08-05T17:32:17.226Z,48.32
2022-08-05T17:34:47.561Z,48.22
2022-08-05T17:37:40.803Z,48.05
2022-08-05T17:40:02.808Z,48.44
2022-08-05T17:42:32.799Z,48.27
2022-08-05T17:45:00.427Z,47.69
2022-08-05T17:47:47.003Z,48.33
2022-08-05T17:50:27.848Z,49.16
2022-08-05T17:52:56.369Z,49.94
2022-08-05T17:55:27.372Z,50.89
2022-08-05T17:58:01.672Z,50.52
2022-08-05T18:00:28.592Z,50.38
2022-08-05T18:02:55.997Z,50.41
2022-08-05T18:05:22.663Z,50.45
2022-08-05T18:07:49.638Z,50.81
2022-08-05T18:10:21.065Z,51.29
2022-08-05T18:12:49.157Z,51.19
2022-08-05T18:15:15.854Z,51.42
2022-08-05T18:17:58.712Z,51.39
2022-08-05T18:20:29.197Z,51.73
2022-08-05T18:23:00.713Z,52.11
2022-08-05T18:25:39.504Z,51.80
2022-08-05T18:28:11.450Z,52.59
2022-08-05T18:30:59.024Z,52.62
2022-08-05T18:33:37.590Z,52.88
2022-08-05T18:36:15.209Z,53.34
2022-08-05T18:38:43.681Z,53.62
2022-08-05T18:41:55.343Z,53.72
2022-08-05T18:43:57.204Z,53.66
2022-08-05T18:46:33.236Z,54.68
2022-08-05T18:49:00.933Z,55.45
2022-08-05T18:52:05.982Z,56.67
2022-08-05T18:54:14.179Z,59.28
2022-08-05T18:56:40.834Z,59.89
2022-08-05T18:59:42.071Z,61.54
2022-08-05T19:01:58.220Z,62.77
2022-08-05T19:04:27.924Z,63.42
2022-08-05T19:06:54.647Z,64.38
2022-08-05T19:09:21.290Z,64.68
2022-08-05T19:11:59.593Z,65.70
2022-08-05T19:14:52.388Z,66.23
2022-08-05T19:17:16.689Z,66.16
2022-08-05T19:19:46.814Z,66.82
2022-08-05T19:22:17.215Z,67.11
2022-08-05T19:24:56.104Z,67.76
2022-08-05T19:27:27.882Z,68.61
2022-08-05T19:29:57.682Z,68.71
2022-08-05T19:32:26.100Z,68.72
2022-08-05T19:34:55.145Z,69.33
2022-08-05T19:37:30.039Z,70.25
2022-08-05T19:40:10.767Z,70.52
2022-08-05T19:42:38.912Z,70.72
2022-08-05T19:45:06.524Z,71.52
2022-08-05T19:47:37.662Z,73.88
2022-08-05T19:50:07.635Z,77.61
2022-08-05T19:52:37.064Z,79.94
2022-08-05T19:55:07.154Z,79.91
2022-08-05T19:58:10.409Z,81.00
2022-08-05T20:00:37.932Z,82.04
2022-08-05T20:03:09.039Z,81.87
2022-08-05T20:05:50.113Z,80.76
2022-08-05T20:08:18.787Z,81.26
2022-08-05T20:10:49.585Z,80.71
2022-08-05T20:13:17.352Z,80.42
2022-08-05T20:15:52.253Z,79.21
2022-08-05T20:18:33.093Z,78.25
2022-08-05T20:21:04.718Z,77.47
2022-08-05T20:23:40.176Z,77.34
2022-08-05T20:26:19.718Z,77.07
2022-08-05T20:28:49.630Z,76.61
2022-08-05T20:31:17.035Z,76.85
2022-08-05T20:33:44.995Z,75.97
2022-08-05T20:36:12.243Z,75.74
2022-08-05T20:38:53.377Z,75.88
2022-08-05T20:41:24.244Z,75.55
2022-08-05T20:43:59.756Z,75.48
2022-08-05T20:46:30.655Z,75.65
2022-08-05T20:48:58.378Z,75.12
2022-08-05T20:51:25.266Z,77.52
2022-08-05T20:53:56.991Z,83.40
2022-08-05T20:56:31.835Z,84.10
2022-08-05T20:59:14.188Z,86.27
2022-08-05T21:01:46.501Z,86.20
2022-08-05T21:04:13.816Z,88.34
2022-08-05T21:06:45.295Z,90.05
2022-08-05T21:09:14.785Z,91.55
2022-08-05T21:12:06.870Z,91.20
2022-08-05T21:14:34.618Z,90.72
2022-08-05T21:17:05.127Z,89.33
2022-08-05T21:19:46.916Z,88.70
2022-08-05T21:22:18.639Z,86.99
2022-08-05T21:24:51.505Z,88.03
2022-08-05T21:27:20.463Z,87.95
2022-08-05T21:29:51.201Z,88.44
2022-08-05T21:32:20.060Z,89.08
2022-08-05T21:34:55.888Z,90.93
2022-08-05T21:37:35.068Z,93.85
2022-08-05T21:40:13.977Z,95.49
2022-08-05T21:42:44.073Z,94.16
2022-08-05T21:45:11.516Z,95.29
2022-08-05T21:47:56.254Z,97.47
2022-08-05T21:50:24.342Z,97.82
2022-08-05T21:52:51.030Z,100.00
2022-08-05T21:55:17.575Z,100.00
2022-08-05T21:58:04.788Z,99.14
2022-08-05T22:00:31.324Z,100.00
2022-08-05T22:02:57.838Z,100.00
2022-08-05T22:05:27.239Z,100.00
2022-08-05T22:07:59.567Z,100.00
2022-08-05T22:10:29.469Z,100.00
2022-08-05T22:12:59.083Z,100.00
2022-08-05T22:16:04.734Z,100.00
2022-08-05T22:18:25.648Z,100.00
2022-08-05T22:20:52.803Z,100.00
2022-08-05T22:23:21.410Z,100.00
2022-08-05T22:26:09.663Z,100.00
2022-08-05T22:28:38.748Z,98.50
2022-08-05T22:31:05.962Z,97.11
2022-08-05T22:33:57.662Z,96.77
2022-08-05T22:36:23.984Z,94.74
2022-08-05T22:38:51.475Z,92.78
2022-08-05T22:41:26.468Z,91.64
2022-08-05T22:44:08.327Z,94.74
2022-08-05T22:46:39.417Z,94.65
2022-08-05T22:49:23.358Z,93.70
2022-08-05T22:52:05.693Z,94.46
2022-08-05T22:54:38.813Z,95.28
2022-08-05T22:57:07.452Z,92.37
2022-08-05T22:59:46.294Z,93.71
2022-08-05T23:02:18.270Z,91.70
2022-08-05T23:04:51.880Z,90.85
2022-08-05T23:07:19.293Z,90.93
2022-08-05T23:09:57.067Z,90.18
2022-08-05T23:12:28.498Z,89.96
2022-08-05T23:14:56.881Z,89.84
2022-08-05T23:17:24.264Z,89.82
2022-08-05T23:20:00.946Z,88.65
2022-08-05T23:22:29.482Z,87.56
2022-08-05T23:24:57.476Z,87.11
2022-08-05T23:27:31.230Z,85.84
2022-08-05T23:29:58.911Z,86.48
2022-08-05T23:32:26.947Z,86.45
2022-08-05T23:34:54.031Z,86.24
2022-08-05T23:37:20.839Z,86.09
2022-08-05T23:39:53.920Z,86.26
2022-08-05T23:42:23.431Z,84.87
2022-08-05T23:44:54.503Z,81.83
2022-08-05T23:47:21.163Z,82.81
2022-08-05T23:49:52.024Z,81.97
2022-08-05T23:52:25.288Z,79.81
2022-08-05T23:54:57.409Z,76.93
2022-08-05T23:57:28.354Z,76.13
